Ackermanville, PA

7:41 PM EST on February 01, 2015 (GMT -0500)
Callie's Farm | Change Station
CLOSE
Current Station
Personal Weather Station
Location: Bangor, PA
Elevation: 725 ft
Nearby Weather Stations
Active Advisory: Winter Storm Warning

Elev 725 ft 40.87 °N, 75.17 °W | Updated 1 minute ago

Snow
Snow
28.4 °F
Feels Like 28 °F
N
0.0
Wind Variable Wind from SE
Gusts 1.0 mph

Today
High -- | Low -- °F
--% Chance of Precip.
Yesterday
High -- | Low -- °F
Precip. -- in
7:11 AM 5:17 PM
Waxing Gibbous, 97% visible
Pressure 30.07 in
Visibility 1.5 miles
Clouds Overcast 2000 ft
Windchill 28 °F
Dew Point 28 °F
Humidity 99%
Rainfall 0.00 in
Snow Depth Not available.
UV 0 out of 12
Pollen .10 out of 12
Air Quality Not available.
Flu Activity Not available.
SPECI KABE 020009Z 09004KT 1 1/2SM -SN BR OVC020 00/M02 A3007 RMK AO2 P0001

More Conditions Fewer Conditions

Pressure 30.07 in
Visibility 1.5 miles
Clouds Overcast 2000 ft
Windchill 28 °F
Dew Point 28 °F
Humidity 99%
Rainfall 0.00 in
Snow Depth Not available.
UV 0 out of 12
Pollen .10 out of 12
Air Quality Not available.
Flu Activity Not available.
SPECI KABE 020009Z 09004KT 1 1/2SM -SN BR OVC020 00/M02 A3007 RMK AO2 P0001

More Conditions Fewer Conditions

Nowcast | as of 7:06 PM EST on February 1, 2015

Between now and 830 PM, light snow will continue in much of eastern Pennsylvania. The snow will begin to accumulate at some locations. If you will be out this evening, be prepared for slippery spots on roads, walkways and parking lots.

×

10-Day Weather Forecast

Almanac

Astronomy

Feb. 01, 2015 Rise Set
Actual Time
Civil Twilight
Nautical Twilight
Astronomical Twilight
Moon
Length of Visible Light
Length of Day
Tomorrow will be .
, % of the Moon is Illuminated

Today's Extremes

State Highs State Lows

Community

WunderPhotos

Upload Photos

1,792,637 photos uploaded!

WunderBlogs® & News

Nearby

Air Quality

  Air Quality AQ Index Pollutant
Not available.

Snow Depth

Station Depth Elevation

Earthquake Activity

City Distance Mag. Time & Date
Minimum magnitude displayed is 2.5.

Coastal Water Temperatures

Place Temperature

Nearby Weather Stations